Time;durP1;ratioP1;P1;durP2;ratioP2;P2;SDS_P1;SDS_P2;PMS_P1;PMS_P2;Temp;Humidity;BMP_temperature;BMP_pressure;BME280_temperature;BME280_humidity;BME280_pressure;Samples;Min_cycle;Max_cycle;Signal;HPM_P1;HPM_P2
2023/10/04 14:04:46;;;;;;;13.43;2.63;;;18.40;99.90;;;;;;6155404;22;1343524;-52
2023/10/04 14:07:12;;;;;;;8.77;2.40;;;18.00;99.90;;;;;;6228535;23;20012;-52
2023/10/04 14:09:38;;;;;;;11.00;2.80;;;17.70;99.90;;;;;;6228256;23;19996;-51
2023/10/04 14:12:03;;;;;;;13.48;2.80;;;17.50;99.90;;;;;;6227771;23;19992;-48
2023/10/04 14:14:32;;;;;;;10.85;2.88;;;17.40;99.90;;;;;;6227909;23;20130;-53
2023/10/04 14:17:05;;;;;;;16.65;3.80;;;17.40;99.90;;;;;;6228085;23;20181;-52
2023/10/04 14:19:31;;;;;;;15.63;2.33;;;17.20;99.90;;;;;;6228402;23;20003;-53
2023/10/04 14:21:58;;;;;;;11.23;2.90;;;17.20;99.90;;;;;;6228231;23;20008;-50
2023/10/04 14:24:24;;;;;;;10.38;3.10;;;17.10;99.90;;;;;;6226630;23;19992;-52
2023/10/04 14:26:53;;;;;;;15.40;2.42;;;17.10;99.90;;;;;;6227943;23;19996;-55
2023/10/04 14:29:20;;;;;;;20.70;3.53;;;16.90;99.90;;;;;;6227121;23;20008;-49
2023/10/04 14:31:46;;;;;;;16.55;3.15;;;16.90;99.90;;;;;;6228174;23;19993;-52
2023/10/04 14:34:12;;;;;;;18.60;2.85;;;16.90;99.90;;;;;;6227550;23;19997;-49
2023/10/04 14:36:38;;;;;;;9.27;2.00;;;16.90;99.90;;;;;;6227955;23;20001;-52
2023/10/04 14:39:08;;;;;;;16.30;2.70;;;16.90;99.90;;;;;;6227447;23;19997;-53
2023/10/04 14:41:34;;;;;;;;;;;16.90;99.90;;;;;;6228591;23;20242;-51
2023/10/04 14:44:00;;;;;;;21.27;3.53;;;16.80;99.90;;;;;;6227577;23;19915;-52
2023/10/04 14:49:05;;;;;;;17.55;2.60;;;16.70;99.90;;;;;;6228166;22;20034;-52
2023/10/04 14:51:32;;;;;;;10.45;2.35;;;16.50;99.90;;;;;;6227687;23;20008;-51
2023/10/04 14:53:57;;;;;;;12.48;2.13;;;16.50;99.90;;;;;;6227976;23;20034;-50
2023/10/04 14:56:24;;;;;;;8.73;2.05;;;16.50;99.90;;;;;;6235707;22;20016;-76
2023/10/04 14:58:50;;;;;;;12.68;2.45;;;16.50;99.90;;;;;;6256059;22;20015;-50
2023/10/04 15:01:17;;;;;;;17.13;2.75;;;16.40;99.90;;;;;;6231283;23;20245;-51
2023/10/04 15:03:43;;;;;;;14.75;2.97;;;16.40;99.90;;;;;;6258391;23;20007;-51
2023/10/04 15:06:18;;;;;;;13.25;2.58;;;16.30;99.90;;;;;;6258090;23;20271;-50
2023/10/04 15:08:44;;;;;;;8.43;2.10;;;16.30;99.90;;;;;;6227665;23;20120;-51
2023/10/04 15:11:11;;;;;;;10.00;2.78;;;16.30;99.90;;;;;;6227930;23;20169;-53
2023/10/04 15:13:37;;;;;;;12.15;2.70;;;16.30;99.90;;;;;;6227882;23;20059;-51
2023/10/04 15:16:04;;;;;;;12.60;2.88;;;16.30;99.90;;;;;;6226263;23;20059;-51
2023/10/04 15:18:30;;;;;;;21.10;2.67;;;16.40;99.90;;;;;;6227251;23;20055;-50
2023/10/04 15:20:56;;;;;;;18.27;2.80;;;17.60;99.90;;;;;;6226244;23;20048;-47
2023/10/04 15:23:22;;;;;;;10.38;2.30;;;18.30;99.90;;;;;;6227769;23;20004;-53
2023/10/04 15:25:49;;;;;;;13.02;2.53;;;18.30;99.90;;;;;;6227486;23;20005;-50
2023/10/04 15:28:16;;;;;;;21.92;2.80;;;18.00;99.90;;;;;;6226120;23;20201;-50
2023/10/04 15:30:42;;;;;;;12.77;2.70;;;18.10;99.90;;;;;;6227541;23;20007;-52
2023/10/04 15:33:08;;;;;;;13.32;2.42;;;18.10;99.90;;;;;;6225941;23;20000;-50
2023/10/04 15:35:34;;;;;;;15.95;2.80;;;18.20;99.90;;;;;;6226315;23;20049;-51
2023/10/04 15:38:00;;;;;;;9.05;2.00;;;18.50;99.90;;;;;;6226688;23;20000;-49
2023/10/04 15:40:29;;;;;;;9.23;1.98;;;18.30;99.90;;;;;;6227307;23;20016;-48
2023/10/04 15:42:55;;;;;;;8.13;2.63;;;17.80;99.90;;;;;;6227634;23;19996;-48
2023/10/04 15:45:22;;;;;;;14.48;2.45;;;17.60;99.90;;;;;;6226908;22;20146;31
2023/10/04 15:50:19;;;;;;;16.65;2.83;;;17.00;99.90;;;;;;6308866;22;20023;-54
2023/10/04 15:56:12;;;;;;;12.80;3.35;;;16.60;99.90;;;;;;6247630;23;20019;-54
2023/10/04 15:58:38;;;;;;;15.32;3.53;;;16.50;99.90;;;;;;6220959;23;20321;-55
2023/10/04 16:01:03;;;;;;;15.75;3.58;;;16.30;99.90;;;;;;6247332;23;20015;-54
2023/10/04 16:03:30;;;;;;;13.27;3.00;;;16.30;99.90;;;;;;6220601;23;19996;-54
2023/10/04 16:09:31;;;;;;;13.65;2.97;;;16.20;99.90;;;;;;6264385;22;20031;-50
2023/10/04 16:11:57;;;;;;;8.63;2.08;;;16.20;99.90;;;;;;6246582;23;20030;-48
2023/10/04 16:14:23;;;;;;;12.43;2.47;;;16.10;99.90;;;;;;6247537;23;20010;-48
2023/10/04 16:16:49;;;;;;;10.75;2.65;;;16.00;99.90;;;;;;6247357;23;20016;-48
2023/10/04 16:19:15;;;;;;;8.10;1.95;;;16.00;99.90;;;;;;6246854;23;20311;-48
2023/10/04 16:21:41;;;;;;;15.00;2.53;;;16.00;99.90;;;;;;6247508;23;20066;-48
2023/10/04 16:24:07;;;;;;;21.35;3.42;;;15.90;99.90;;;;;;6220496;23;20043;-52
2023/10/04 16:26:36;;;;;;;11.80;3.17;;;15.90;99.90;;;;;;6247321;23;20008;-49
2023/10/04 16:29:02;;;;;;;14.38;4.75;;;15.90;99.90;;;;;;6247377;23;20058;-50
2023/10/04 16:31:27;;;;;;;18.90;3.20;;;15.90;99.90;;;;;;6247066;23;20066;-47
2023/10/04 16:33:53;;;;;;;15.80;2.60;;;15.90;99.90;;;;;;6246188;23;20186;-48
2023/10/04 16:36:20;;;;;;;18.88;3.78;;;15.90;99.90;;;;;;6247265;23;20353;-48
2023/10/04 16:38:45;;;;;;;19.75;3.55;;;15.90;99.90;;;;;;6247171;23;20095;-48
2023/10/04 16:41:11;;;;;;;14.63;2.88;;;15.90;99.90;;;;;;6245887;23;20043;-49
2023/10/04 16:43:37;;;;;;;13.70;2.80;;;15.90;99.90;;;;;;6247576;23;20004;-48
2023/10/04 16:46:03;;;;;;;19.05;3.25;;;15.90;99.90;;;;;;6246341;22;20012;-76
2023/10/04 16:51:05;;;;;;;14.45;3.47;;;15.90;99.90;;;;;;6228419;22;20039;-91
2023/10/04 16:53:33;;;;;;;15.60;3.97;;;15.90;99.90;;;;;;6249183;23;20012;-90
2023/10/04 16:55:59;;;;;;;15.90;3.83;;;15.90;99.90;;;;;;6224618;23;20007;-91
2023/10/04 16:58:25;;;;;;;20.75;3.25;;;15.80;99.90;;;;;;6198723;23;20022;-90
2023/10/04 17:00:51;;;;;;;20.00;3.63;;;15.80;99.90;;;;;;6224202;23;20008;-90
2023/10/04 17:03:17;;;;;;;14.13;3.65;;;15.80;99.90;;;;;;6200351;23;20315;-90
2023/10/04 17:05:43;;;;;;;14.30;3.60;;;15.80;99.90;;;;;;6251156;23;20005;-90
2023/10/04 17:08:09;;;;;;;13.73;3.10;;;15.80;99.90;;;;;;6206677;23;20082;-51
2023/10/04 17:10:35;;;;;;;16.23;3.42;;;15.70;99.90;;;;;;6249315;23;20038;-52
2023/10/04 17:13:01;;;;;;;17.90;3.63;;;15.70;99.90;;;;;;6249346;23;20004;-51
2023/10/04 17:15:28;;;;;;;20.00;3.83;;;15.70;99.90;;;;;;6249417;23;20082;-51
2023/10/04 17:17:53;;;;;;;15.57;3.25;;;15.70;99.90;;;;;;6249300;23;20145;-50
2023/10/04 17:20:19;;;;;;;24.80;3.88;;;15.70;99.90;;;;;;6248685;23;20043;-51
2023/10/04 17:22:45;;;;;;;15.05;3.28;;;15.70;99.90;;;;;;6249070;23;20379;-48
2023/10/04 17:25:12;;;;;;;27.50;4.03;;;15.70;99.90;;;;;;6249191;23;20015;-51
2023/10/04 17:27:38;;;;;;;15.30;3.42;;;15.60;99.90;;;;;;6247715;23;20008;-52
2023/10/04 17:30:04;;;;;;;19.17;3.80;;;15.60;99.90;;;;;;6248931;23;20066;-50
2023/10/04 17:32:30;;;;;;;17.33;3.40;;;15.60;99.90;;;;;;6247538;23;20024;-51
2023/10/04 17:34:56;;;;;;;18.55;3.25;;;15.60;99.90;;;;;;6248878;23;20417;-51
2023/10/04 17:37:22;;;;;;;17.00;3.92;;;15.60;99.90;;;;;;6249123;23;20020;-49
2023/10/04 17:39:47;;;;;;;19.20;3.70;;;15.60;99.90;;;;;;6248412;23;20040;-52
2023/10/04 17:42:13;;;;;;;25.00;5.38;;;15.60;99.90;;;;;;6248485;23;20005;-51
2023/10/04 17:44:41;;;;;;;19.65;3.38;;;15.50;99.90;;;;;;6248646;23;20079;-51
2023/10/04 17:47:08;;;;;;;18.03;2.73;;;15.50;99.90;;;;;;6247189;23;20042;-51
2023/10/04 17:49:34;;;;;;;13.82;2.65;;;15.50;99.90;;;;;;6248783;23;20008;-51
2023/10/04 17:52:00;;;;;;;19.23;3.92;;;15.60;99.90;;;;;;6248560;23;20019;-52
2023/10/04 17:54:25;;;;;;;19.02;4.57;;;15.60;99.90;;;;;;6247331;23;20050;-51
2023/10/04 17:56:52;;;;;;;18.00;3.90;;;15.60;99.90;;;;;;6248315;23;20046;-48
2023/10/04 17:59:17;;;;;;;17.63;3.50;;;15.50;99.90;;;;;;6247363;23;20020;-51
2023/10/04 18:01:43;;;;;;;13.15;3.25;;;15.50;99.90;;;;;;6248910;23;20082;-52
2023/10/04 18:04:09;;;;;;;13.98;3.60;;;15.50;99.90;;;;;;6247219;23;20091;-48
2023/10/04 18:06:35;;;;;;;17.88;3.38;;;15.50;99.90;;;;;;6248918;23;20004;-49
2023/10/04 18:09:01;;;;;;;21.30;3.55;;;15.50;99.90;;;;;;6248462;23;20016;-49
2023/10/04 18:11:30;;;;;;;18.40;4.20;;;15.40;99.90;;;;;;6248818;23;20067;-50
2023/10/04 18:13:56;;;;;;;14.55;2.75;;;15.50;99.90;;;;;;6247866;23;20023;-48
2023/10/04 18:16:21;;;;;;;15.63;2.90;;;15.40;99.90;;;;;;6247116;23;20012;-49
2023/10/04 18:18:47;;;;;;;17.00;3.15;;;15.50;99.90;;;;;;6248362;23;20391;-49
2023/10/04 18:21:13;;;;;;;17.65;4.43;;;15.40;99.90;;;;;;6248551;23;20276;-49
2023/10/04 18:23:39;;;;;;;16.48;2.88;;;15.50;99.90;;;;;;6247233;23;20134;-48
2023/10/04 18:26:07;;;;;;;21.60;3.53;;;15.40;99.90;;;;;;6247122;23;20311;-49
2023/10/04 18:28:34;;;;;;;18.55;3.45;;;15.50;99.90;;;;;;6248539;23;20008;-48
2023/10/04 18:31:00;;;;;;;15.93;3.17;;;15.40;99.90;;;;;;6248596;23;20004;-48
2023/10/04 18:33:28;;;;;;;19.95;4.40;;;15.50;99.90;;;;;;6249321;23;20008;-48
2023/10/04 18:35:55;;;;;;;14.30;3.22;;;15.40;99.90;;;;;;6248833;23;20012;-47
2023/10/04 18:38:21;;;;;;;16.52;3.17;;;15.40;99.90;;;;;;6248706;23;20000;-48
2023/10/04 18:40:46;;;;;;;18.27;3.42;;;15.40;99.90;;;;;;6249221;22;20016;-48
2023/10/04 18:43:12;;;;;;;22.23;3.90;;;15.50;99.90;;;;;;6249104;23;20008;-48
2023/10/04 18:45:38;;;;;;;22.17;4.10;;;15.50;99.90;;;;;;6248379;23;20005;-48
2023/10/04 18:48:05;;;;;;;23.85;6.85;;;15.50;99.90;;;;;;6248760;23;20008;-48
2023/10/04 18:50:31;;;;;;;15.40;3.10;;;15.40;99.90;;;;;;6247002;23;20087;-48
2023/10/04 18:52:57;;;;;;;16.67;3.45;;;15.40;99.90;;;;;;6248336;23;20308;-49
2023/10/04 18:55:23;;;;;;;23.25;4.50;;;15.40;99.90;;;;;;6248599;22;20015;-49
2023/10/04 18:57:48;;;;;;;20.48;4.15;;;15.40;99.90;;;;;;6248146;23;20011;-49
2023/10/04 19:00:14;;;;;;;18.60;4.10;;;15.40;99.90;;;;;;6246631;23;20078;-50
2023/10/04 19:02:43;;;;;;;14.60;2.80;;;15.40;99.90;;;;;;6248170;23;20326;-49
2023/10/04 19:05:10;;;;;;;20.65;3.33;;;15.40;99.90;;;;;;6246679;23;20016;-50
2023/10/04 19:07:39;;;;;;;23.92;4.03;;;15.40;99.90;;;;;;6248015;23;20015;-50
2023/10/04 19:10:08;;;;;;;15.88;3.08;;;15.40;99.90;;;;;;6247952;23;20008;-48
2023/10/04 19:12:34;;;;;;;21.30;4.20;;;15.40;99.90;;;;;;6248326;22;20410;-50
2023/10/04 19:15:00;;;;;;;21.75;4.28;;;15.40;99.90;;;;;;6248129;23;20008;-48
2023/10/04 19:17:26;;;;;;;13.73;3.10;;;15.40;99.90;;;;;;6248888;23;20093;-48
2023/10/04 19:19:52;;;;;;;15.40;3.63;;;15.40;99.90;;;;;;6247990;23;20011;-51
2023/10/04 19:22:17;;;;;;;22.92;3.60;;;15.40;99.90;;;;;;6248355;23;20016;-49
2023/10/04 19:24:45;;;;;;;17.83;3.22;;;15.40;99.90;;;;;;6248158;23;20008;-48
2023/10/04 19:27:11;;;;;;;26.48;3.60;;;15.40;99.90;;;;;;6247732;23;20015;-49
2023/10/04 19:29:37;;;;;;;21.17;3.67;;;15.40;99.90;;;;;;6246378;23;20012;-48
2023/10/04 19:32:03;;;;;;;17.55;3.45;;;15.40;99.90;;;;;;6248132;23;20012;-50
2023/10/04 19:34:29;;;;;;;13.35;3.08;;;15.40;99.90;;;;;;6247209;23;20027;-50
2023/10/04 19:36:55;;;;;;;19.90;3.85;;;15.40;99.90;;;;;;6248109;23;20403;-49
2023/10/04 19:39:22;;;;;;;20.67;3.50;;;15.40;99.90;;;;;;6247993;23;20012;-48
2023/10/04 19:41:49;;;;;;;12.32;2.47;;;15.40;99.90;;;;;;6248130;23;20303;-51
2023/10/04 19:44:15;;;;;;;23.23;3.47;;;15.40;99.90;;;;;;6247841;22;20035;-51
2023/10/04 19:46:40;;;;;;;21.73;3.95;;;15.40;99.90;;;;;;6247814;23;20015;-51
2023/10/04 19:49:08;;;;;;;21.55;4.00;;;15.40;99.90;;;;;;6247788;23;20012;-48
2023/10/04 19:51:36;;;;;;;20.73;3.38;;;15.40;99.90;;;;;;6248018;23;20066;-49
2023/10/04 19:54:04;;;;;;;22.33;3.80;;;15.40;99.90;;;;;;6246468;23;20046;-49
2023/10/04 19:56:29;;;;;;;21.02;3.85;;;15.40;99.90;;;;;;6247744;23;20411;-52
2023/10/04 19:58:56;;;;;;;24.10;5.18;;;15.30;99.90;;;;;;6247040;23;20011;-51
2023/10/04 20:01:22;;;;;;;19.42;3.25;;;15.30;99.90;;;;;;6248081;23;20009;-49
2023/10/04 20:03:48;;;;;;;18.17;4.00;;;15.30;99.90;;;;;;6247785;23;20039;-50
2023/10/04 20:06:14;;;;;;;19.98;4.90;;;15.30;99.90;;;;;;6246581;23;20004;-51
2023/10/04 20:08:40;;;;;;;20.20;3.67;;;15.30;99.90;;;;;;6246213;23;20020;-51
2023/10/04 20:11:07;;;;;;;23.35;4.30;;;15.40;99.90;;;;;;6246771;23;20303;-51
2023/10/04 20:13:34;;;;;;;15.90;3.40;;;15.40;99.90;;;;;;6248056;23;20019;-52
2023/10/04 20:16:06;;;;;;;18.70;3.25;;;15.40;99.90;;;;;;6247389;22;20032;-50
2023/10/04 20:18:32;;;;;;;20.45;5.25;;;15.30;99.90;;;;;;6246339;23;20023;-51
2023/10/04 20:20:58;;;;;;;18.95;3.38;;;15.40;99.90;;;;;;6246543;23;20028;-51
2023/10/04 20:23:27;;;;;;;13.93;2.92;;;15.30;99.90;;;;;;6246314;23;20015;-51
2023/10/04 20:25:56;;;;;;;18.27;3.45;;;15.40;99.90;;;;;;6247702;23;20422;-52
2023/10/04 20:28:22;;;;;;;26.10;3.25;;;15.30;99.90;;;;;;6246572;23;20303;-51
2023/10/04 20:30:48;;;;;;;17.65;3.00;;;15.30;99.90;;;;;;6247262;23;20000;-52
2023/10/04 20:33:14;;;;;;;17.85;3.47;;;15.30;99.90;;;;;;6247296;23;20351;-51
2023/10/04 20:35:40;;;;;;;24.35;4.00;;;15.30;99.90;;;;;;6221131;23;20020;-51
2023/10/04 20:38:10;;;;;;;18.25;4.18;;;15.30;99.90;;;;;;6249975;23;20004;-51
2023/10/04 20:40:37;;;;;;;21.50;3.72;;;15.30;99.90;;;;;;6248120;23;20012;-51
2023/10/04 20:43:03;;;;;;;24.15;4.28;;;15.30;99.90;;;;;;6249537;23;20126;-51
2023/10/04 20:45:29;;;;;;;22.30;3.90;;;15.30;99.90;;;;;;6249110;23;20004;-51
2023/10/04 20:47:54;;;;;;;16.25;3.15;;;15.30;99.90;;;;;;6249499;23;20019;-51
2023/10/04 20:50:20;;;;;;;19.17;3.85;;;15.30;99.90;;;;;;6249587;23;20031;-52
2023/10/04 20:52:47;;;;;;;19.58;4.03;;;15.30;99.90;;;;;;6248403;23;20016;-50
2023/10/04 20:55:13;;;;;;;16.40;3.75;;;15.30;99.90;;;;;;6249820;23;20008;-50
2023/10/04 20:57:39;;;;;;;20.73;3.13;;;15.40;99.90;;;;;;6248257;23;20019;-51
2023/10/04 21:00:09;;;;;;;18.23;4.03;;;15.30;99.90;;;;;;6249408;23;20016;-51
2023/10/04 21:02:37;;;;;;;16.95;3.65;;;15.30;99.90;;;;;;6249368;22;20008;-48
2023/10/04 21:05:03;;;;;;;21.30;3.85;;;15.30;99.90;;;;;;6249189;23;20008;-51
2023/10/04 21:07:29;;;;;;;16.45;2.67;;;15.30;99.90;;;;;;6247805;23;20415;-51
2023/10/04 21:09:55;;;;;;;17.85;3.33;;;15.30;99.90;;;;;;6248147;23;20079;-52
2023/10/04 21:12:20;;;;;;;19.20;3.53;;;15.30;99.90;;;;;;6249225;23;20399;-51
2023/10/04 21:14:46;;;;;;;15.48;3.60;;;15.30;99.90;;;;;;6249207;23;20008;-51
2023/10/04 21:17:12;;;;;;;19.50;3.80;;;15.30;99.90;;;;;;6248935;23;20047;-51
2023/10/04 21:19:38;;;;;;;19.77;4.05;;;15.30;99.90;;;;;;6247544;23;20059;-51
2023/10/04 21:22:04;;;;;;;19.30;3.35;;;15.30;99.90;;;;;;6249581;23;20019;-48
2023/10/04 21:24:30;;;;;;;19.48;3.65;;;15.30;99.90;;;;;;6249378;23;20032;-48
2023/10/04 21:26:57;;;;;;;23.15;3.53;;;15.30;99.90;;;;;;6249212;23;20014;-49
2023/10/04 21:29:26;;;;;;;17.50;3.70;;;15.30;99.90;;;;;;6249549;23;20005;-48
2023/10/04 21:31:54;;;;;;;23.65;4.20;;;15.30;99.90;;;;;;6247914;23;20012;-48
2023/10/04 21:34:21;;;;;;;18.17;3.90;;;15.30;99.90;;;;;;6249274;23;20012;-49
2023/10/04 21:36:47;;;;;;;16.80;3.10;;;15.30;99.90;;;;;;6249074;23;20311;-49
2023/10/04 21:39:28;;;;;;;18.50;3.28;;;15.20;99.90;;;;;;6249186;23;20012;-51
2023/10/04 21:41:54;;;;;;;18.27;3.35;;;15.20;99.90;;;;;;6249337;23;20024;-52
2023/10/04 21:44:27;;;;;;;19.52;3.60;;;15.20;99.90;;;;;;6249193;23;20062;-49
2023/10/04 21:46:59;;;;;;;15.80;4.13;;;15.20;99.90;;;;;;6248783;23;20058;-51
2023/10/04 21:49:25;;;;;;;21.65;3.38;;;15.20;99.90;;;;;;6248736;23;20008;-49
2023/10/04 21:51:54;;;;;;;15.93;3.33;;;15.20;99.90;;;;;;6248886;23;20376;-49
2023/10/04 21:54:22;;;;;;;14.30;3.40;;;15.20;99.90;;;;;;6249181;23;20038;-50
2023/10/04 21:56:51;;;;;;;19.52;3.45;;;15.20;99.90;;;;;;6249022;23;20008;-47
2023/10/04 21:59:20;;;;;;;31.05;4.45;;;15.20;99.90;;;;;;6247707;23;20036;-47
2023/10/04 22:01:47;;;;;;;24.15;5.22;;;15.20;99.90;;;;;;6247630;23;20004;-49
2023/10/04 22:04:20;;;;;;;22.25;3.08;;;15.20;99.90;;;;;;6249206;23;20334;-47
2023/10/04 22:06:46;;;;;;;19.38;3.00;;;15.20;99.90;;;;;;6247743;23;20400;-49
2023/10/04 22:09:23;;;;;;;14.35;3.17;;;15.30;99.90;;;;;;6248893;22;20310;-48
2023/10/04 22:11:49;;;;;;;18.25;3.05;;;15.20;99.90;;;;;;6249004;23;20005;-48
2023/10/04 22:14:16;;;;;;;15.90;2.88;;;15.30;99.90;;;;;;6248631;22;20031;-49
2023/10/04 22:16:42;;;;;;;13.18;3.65;;;15.30;99.90;;;;;;6248855;23;20410;-48
2023/10/04 22:19:10;;;;;;;14.27;2.75;;;15.30;99.90;;;;;;6248514;23;20008;-48
2023/10/04 22:21:36;;;;;;;16.08;2.97;;;15.30;99.90;;;;;;6247914;23;20008;-50
2023/10/04 22:24:04;;;;;;;19.58;3.75;;;15.30;99.90;;;;;;6247373;23;20274;-49
2023/10/04 22:26:30;;;;;;;20.92;3.60;;;15.30;99.90;;;;;;6248599;23;20011;-50
2023/10/04 22:28:56;;;;;;;17.67;3.40;;;15.30;99.90;;;;;;6248519;23;20016;-48
2023/10/04 22:31:22;;;;;;;16.92;3.05;;;15.30;99.90;;;;;;6248935;23;20083;-48
2023/10/04 22:33:48;;;;;;;21.33;4.15;;;15.30;99.90;;;;;;6247595;22;20012;-50
2023/10/04 22:36:15;;;;;;;18.83;3.95;;;15.30;99.90;;;;;;6248679;23;20093;-49
2023/10/04 22:38:43;;;;;;;17.33;3.30;;;15.30;99.90;;;;;;6248401;23;20031;-50
2023/10/04 22:41:08;;;;;;;23.15;4.10;;;15.30;99.90;;;;;;6248895;23;20272;-48
2023/10/04 22:43:35;;;;;;;20.35;3.60;;;15.30;99.90;;;;;;6248687;23;20046;-48
2023/10/04 22:46:01;;;;;;;21.67;3.58;;;15.30;99.90;;;;;;6248487;23;20004;-49
2023/10/04 22:48:26;;;;;;;16.58;3.42;;;15.30;99.90;;;;;;6247164;23;20004;-50
2023/10/04 22:50:53;;;;;;;13.30;2.90;;;15.40;99.90;;;;;;6221936;23;20285;-48
2023/10/04 22:53:18;;;;;;;22.98;3.80;;;15.30;99.90;;;;;;6248565;23;20079;-48
2023/10/04 22:55:45;;;;;;;16.60;2.97;;;15.30;99.90;;;;;;6247012;23;20347;-50
2023/10/04 22:58:11;;;;;;;15.90;3.13;;;15.40;99.90;;;;;;6248068;23;20004;-51
2023/10/04 23:00:38;;;;;;;21.27;4.03;;;15.40;99.90;;;;;;6248208;23;20008;-51
2023/10/04 23:03:06;;;;;;;14.00;3.00;;;15.40;99.90;;;;;;6247245;23;20015;-52
2023/10/04 23:05:33;;;;;;;17.80;3.53;;;15.40;99.90;;;;;;6247182;23;20039;-51
2023/10/04 23:07:58;;;;;;;12.95;3.13;;;15.40;99.90;;;;;;6246974;23;20083;-51
2023/10/04 23:10:25;;;;;;;14.50;3.35;;;15.40;99.90;;;;;;6246979;23;20457;-51
2023/10/04 23:12:53;;;;;;;20.02;3.63;;;15.40;99.90;;;;;;6248187;23;20012;-50
2023/10/04 23:15:32;;;;;;;17.33;3.70;;;15.40;99.90;;;;;;6248475;23;20031;-50
2023/10/04 23:18:22;;;;;;;14.70;3.50;;;15.40;99.90;;;;;;6247038;23;20012;-51
2023/10/04 23:20:55;;;;;;;17.65;3.28;;;15.40;99.90;;;;;;6248302;22;20031;-52
2023/10/04 23:23:21;;;;;;;21.48;3.70;;;15.40;99.90;;;;;;6248445;23;20387;-51
2023/10/04 23:25:48;;;;;;;18.85;3.53;;;15.40;99.90;;;;;;6247710;23;20008;-52
2023/10/04 23:28:17;;;;;;;20.90;3.30;;;15.40;99.90;;;;;;6248238;23;20008;-52
2023/10/04 23:30:44;;;;;;;17.95;3.00;;;15.40;99.90;;;;;;6248268;23;20049;-51
2023/10/04 23:33:20;;;;;;;21.38;3.60;;;15.30;99.90;;;;;;6248201;23;20012;-52
2023/10/04 23:35:47;;;;;;;16.92;3.30;;;15.40;99.90;;;;;;6248363;23;20276;-51
2023/10/04 23:39:00;;;;;;;17.35;3.58;;;15.30;99.90;;;;;;6247958;22;20018;-52
2023/10/04 23:41:24;;;;;;;22.13;3.30;;;15.30;99.90;;;;;;6242483;23;20020;-52
2023/10/04 23:43:50;;;;;;;19.95;3.05;;;15.30;99.90;;;;;;6247087;23;20012;-52
2023/10/04 23:46:36;;;;;;;13.85;3.03;;;15.30;99.90;;;;;;6246953;23;20019;-52
2023/10/04 23:49:18;;;;;;;22.58;3.50;;;15.30;99.90;;;;;;6248011;23;20019;-48
2023/10/04 23:51:45;;;;;;;13.55;2.85;;;15.40;99.90;;;;;;6248174;23;20024;-49
2023/10/04 23:54:25;;;;;;;14.98;2.95;;;15.40;99.90;;;;;;6247432;23;20313;-49
2023/10/04 23:59:24;;;;;;;22.92;3.42;;;15.40;99.90;;;;;;6248119;23;20343;-51
